»·PEaware :: N112PC KOSH-KOSH

N112PC :: KOSH-KOSH

FLIGHT INFORMATION

Flight Status: Arrived
Operator: Privately registered:
United States
More flights under this callsign
Pilot: Gabor H. (24209)
Aircraft: CESSNA 172 SKYHAWK
(C172)
More flights by this aircraft type
Origin: KOSH Wittman Regl
United States
Destination: KOSH Wittman Regl
United States
More flights between these airports :: More routes between these airports
Route: +
File this flight plan on PilotEdge
Remarks:
Altitude:
(Current/Filed)
4,500ft
Speed:
(Current/Filed)
0kts
Departed: 13-Jul-20 10:39 AM
Arrived: 13-Jul-20 11:26 AM
Distance/Time
Traveled:
13nm/0:47
Distance/Time
To Go:
Arrived

Flight Plot

Page will automatically refresh every two minutes.

Flight plan parsing failed; only flown route is shown


Map Options




Map Legend


Flown Route
Filed Route
Departure Airport
Arrival Airport
Navaid (VOR, NDB)
Fix

Horizontal Profiles

Position Reports

Time Latitude Longitude Heading Altitude Ground
Speed
13-Jul-20 10:37 43.858359 -88.816941 64 1799ft 92kts
13-Jul-20 10:38 43.873802 -88.788583 50 1799ft 92kts
13-Jul-20 10:39 43.877547 -88.781805 51 1799ft 92kts
13-Jul-20 10:40 43.877547 -88.781805 51 1799ft 92kts
13-Jul-20 10:41 43.877547 -88.781805 51 1799ft 92kts
13-Jul-20 10:42 43.877547 -88.781805 51 1799ft 92kts
13-Jul-20 10:43 43.877719 -88.781494 51 1799ft 92kts
13-Jul-20 10:44 43.877719 -88.781494 51 1799ft 92kts
13-Jul-20 10:45 43.877719 -88.781494 51 1799ft 92kts
13-Jul-20 10:46 43.877719 -88.781494 51 1799ft 92kts
13-Jul-20 10:47 43.877719 -88.781494 51 1799ft 92kts
13-Jul-20 10:48 43.877719 -88.781494 51 1799ft 92kts
13-Jul-20 10:49 43.877719 -88.781494 51 1799ft 92kts
13-Jul-20 10:50 43.877719 -88.781494 51 1799ft 92kts
13-Jul-20 10:51 43.877719 -88.781494 51 1799ft 92kts
13-Jul-20 10:52 43.877719 -88.781494 51 1799ft 92kts
13-Jul-20 10:53 43.877719 -88.781494 51 1799ft 92kts
13-Jul-20 10:54 43.877719 -88.781494 51 1799ft 92kts
13-Jul-20 10:55 43.877719 -88.781494 51 1799ft 92kts
13-Jul-20 10:56 43.877719 -88.781494 51 1799ft 92kts
13-Jul-20 10:57 43.878670 -88.779767 51 1799ft 92kts
13-Jul-20 10:58 43.894641 -88.753993 43 1799ft 92kts
13-Jul-20 10:59 43.895612 -88.752662 43 1799ft 92kts
13-Jul-20 11:00 43.895612 -88.752662 43 1799ft 92kts
13-Jul-20 11:01 43.895612 -88.752662 43 1799ft 92kts
13-Jul-20 11:02 43.895612 -88.752662 43 1799ft 92kts
13-Jul-20 11:03 43.895612 -88.752662 43 1799ft 92kts
13-Jul-20 11:04 43.895612 -88.752662 43 1799ft 92kts
13-Jul-20 11:05 43.895612 -88.752662 43 1799ft 92kts
13-Jul-20 11:06 43.898670 -88.748477 43 1799ft 92kts
13-Jul-20 11:07 43.917919 -88.724587 36 1795ft 92kts
13-Jul-20 11:08 43.936955 -88.700876 35 1800ft 93kts
13-Jul-20 11:09 43.951386 -88.672962 84 1796ft 91kts
13-Jul-20 11:10 43.951772 -88.642815 87 1799ft 89kts
13-Jul-20 11:11 43.951772 -88.642815 87 1799ft 89kts
13-Jul-20 11:12 43.951772 -88.642815 87 1799ft 89kts
13-Jul-20 11:13 43.951772 -88.642815 87 1799ft 89kts
13-Jul-20 11:14 43.945392 -88.626730 164 1790ft 88kts
13-Jul-20 11:15 43.933884 -88.651183 256 1802ft 92kts
13-Jul-20 11:16 43.930873 -88.688081 265 1799ft 98kts
13-Jul-20 11:17 43.946665 -88.700780 48 1794ft 96kts
13-Jul-20 11:18 43.960711 -88.670734 50 1801ft 92kts
13-Jul-20 11:19 43.975050 -88.640353 57 1799ft 94kts
13-Jul-20 11:20 43.983349 -88.620808 57 1799ft 92kts
13-Jul-20 11:21 43.983349 -88.620808 57 1799ft 92kts
13-Jul-20 11:22 43.994327 -88.594947 57 1799ft 91kts
13-Jul-20 11:23 43.999669 -88.562003 89 1712ft 87kts
13-Jul-20 11:24 43.991931 -88.545996 246 1069ft 70kts
13-Jul-20 11:25 43.992225 -88.564066 304 785ft 12kts
13-Jul-20 11:26 43.992484 -88.569641 280 792ft 25kts
13-Jul-20 11:41 43.866394 -88.800986 52 1799ft 92kts

Navigation Log

Ident Type
Flight plan parsing failed, navigation log unavailable